AirNav   Pilot Hours Calculator
 
 1467 users online  

83MI St. Joseph Mercy Oakland-Bassett Street Helipad
Pontiac, Michigan, USA

GOING TO PONTIAC?


FAA INFORMATION EFFECTIVE 30 JANUARY 2020

Location

FAA Identifier: 83MI
Lat/Long: 42-36-43.6000N 083-16-33.1000W
42-36.726667N 083-16.551667W
42.6121111,-83.2758611
(estimated)
Elevation: 980 ft. / 299 m (estimated)
Variation: 08W (2020)
From city: 2 miles SW of PONTIAC, MI
Time zone: UTC -5 (UTC -4 during Daylight Saving Time)
Zip code: 48341

Heliport Operations

Heliport use: Private use. Permission required prior to landing
Activation date: 06/2015
Control tower: no
ARTCC: CLEVELAND CENTER
FSS: LANSING FLIGHT SERVICE STATION
Attendance: CONTINUOUS
Wind indicator: yes
Segmented circle: no

Heliport Communications

DETROIT APPROACH: 132.35
DETROIT DEPARTURE: 132.35
WX AWOS-3 at VLL (6 nm SE): 119.475 (248-288-4649)
WX ASOS at PTK (7 nm NW): 125.025 (248-886-8551)
WX ASOS at DET (17 nm SE): PHONE 313-371-9696

Nearby radio navigation aids

VOR radial/distance  VOR name  Freq  Var
SVMr052/18.6SALEM VORTAC114.3003W
DXOr016/24.3DETROIT VOR/DME113.4006W
YQGr324/29.4WINDSOR VOR/DME113.8006W
FNTr142/29.7FLINT VORTAC116.9006W
CRLr016/34.8CARLETON VOR/DME115.7003W

 
NDB name  Hdg/Dist  Freq  Var  ID
GROSSE ILE357/31.141907WRYS .-. -.-- ...

Heliport Services

Runway Information

Helipad H1

Dimensions: 45 x 45 ft. / 14 x 14 m
Surface: asphalt
Latitude: 42-36.726667N
Longitude: 083-16.551667W
Elevation: 980.0 ft.
Traffic pattern: leftleft

Heliport Ownership and Management from official FAA records

Ownership: Privately-owned
Owner: ST. JOSEPH MERCY OAKLAND HOSPITAL
44405 WOODWARD ST.
PONTIAC, MI 48341
Manager: MATHEW MARK
44405 WOODWARD ST.
PONTIAC, MI 48341
Phone 248-858-6444

Additional Remarks

FOR CD CTC DETROIT APCH AT 800-499-8181.

Instrument Procedures

There are no published instrument procedures at 83MI.

Some nearby airports with instrument procedures:

KVLL - Oakland/Troy Airport (6 nm SE)
KPTK - Oakland County International Airport (7 nm NW)
Y47 - Oakland Southwest Airport (17 nm SW)
KDET - Coleman A Young Municipal Airport (17 nm SE)
D98 - Romeo State Airport (17 nm NE)
1D2 - Canton-Plymouth-Mettetal Airport (18 nm SW)
57D - Ray Community Airport (19 nm NE)
KMTC - Selfridge Air National Guard Base (19 nm E)
 
Loc | Ops | Rwys | IFR | FBO | Links
Com | Nav | Svcs | Stats | Notes
Aerial photo
No photo
 
Airport distance calculator
Flying to St. Joseph Mercy Oakland-Bassett Street Helipad? Find the distance to fly.

From to 83MI

Sunrise and sunset
Times for 19-Feb-2020
 Local
(UTC-5)
 Zulu
(UTC)
Morning civil twilight06:5711:57
Sunrise07:2512:25
Sunset18:0923:09
Evening civil twilight18:3723:37

Current date and time
Zulu (UTC)  19-Feb-2020 15:08:30
Local (UTC-5)  19-Feb-2020 10:08:30
 
METAR
KVLL 
6nm SE 
191455Z AUTO 31010G14KT 10SM CLR M05/M13 A3052 RMK AO2 T10511133
KPTK 
7nm NW 
191453Z 32011G18KT 10SM CLR M07/M15 A3047 RMK AO2 SLP333 T10671150 51030
KDET 
17nm SE 
191453Z 32009G17KT 10SM CLR M05/M14 A3051 RMK AO2 SLP339 T10501144 51035
TAF
KPTK 
7nm NW 
191135Z 1912/2012 30013KT P6SM SCT040 FM200100 33007KT P6SM BKN100 OVC250
KDET 
17nm SE 
191405Z 1914/2012 31013KT P6SM SKC FM192000 31010KT P6SM FEW035 FM200200 31007KT P6SM BKN090 BKN200
NOTAMs
Click for the latest NOTAMs
NOTAMs are issued by the DoD/FAA and will open in a separate window not controlled by AirNav.

 

 
 

Would you like to see your business listed on this page?

 If your business provides an interesting product or service to pilots, flight crews, aircraft, or users of the St. Joseph Mercy Oakland-Bassett Street Helipad, you should consider listing it here.  To start the listing process, click on the button below
 
Add a business
 

Other Pages about St. Joseph Mercy Oakland-Bassett Street Helipad

Update a link
 
Copyright © AirNav, LLC. All rights reserved. Privacy Policy  Contact